createdAt,value
2018-11-06T00:00:28.006Z,9.60
2018-11-06T00:03:01.700Z,9.60
2018-11-06T00:05:29.838Z,9.50
2018-11-06T00:07:58.305Z,9.50
2018-11-06T00:10:26.554Z,9.50
2018-11-06T00:12:54.640Z,9.40
2018-11-06T00:15:22.783Z,9.40
2018-11-06T00:17:51.141Z,9.40
2018-11-06T00:20:19.913Z,9.40
2018-11-06T00:22:48.115Z,9.40
2018-11-06T00:25:16.229Z,9.40
2018-11-06T00:27:44.459Z,9.30
2018-11-06T00:30:13.705Z,9.20
2018-11-06T00:32:42.373Z,9.10
2018-11-06T00:35:11.941Z,9.10
2018-11-06T00:37:41.269Z,9.10
2018-11-06T00:40:09.885Z,9.10
2018-11-06T00:42:38.545Z,9.10
2018-11-06T00:45:10.217Z,9.10
2018-11-06T00:47:38.971Z,9.20
2018-11-06T00:50:08.986Z,9.20
2018-11-06T00:52:37.947Z,9.20
2018-11-06T00:55:07.413Z,9.20
2018-11-06T00:57:36.131Z,9.20
2018-11-06T01:00:06.176Z,9.30
2018-11-06T01:02:34.262Z,9.30
2018-11-06T01:05:02.606Z,9.40
2018-11-06T01:07:30.751Z,9.40
2018-11-06T01:09:58.835Z,9.30
2018-11-06T01:12:26.930Z,9.30
2018-11-06T01:14:55.059Z,9.20
2018-11-06T01:17:23.206Z,9.10
2018-11-06T01:19:51.713Z,9.00
2018-11-06T01:22:19.879Z,9.00
2018-11-06T01:24:48.135Z,9.00
2018-11-06T01:27:16.789Z,9.00
2018-11-06T01:29:44.998Z,8.90
2018-11-06T01:32:13.096Z,8.90
2018-11-06T01:34:41.558Z,8.80
2018-11-06T01:37:09.798Z,8.70
2018-11-06T01:39:37.886Z,8.70
2018-11-06T01:42:06.628Z,8.70
2018-11-06T01:44:34.928Z,8.70
2018-11-06T01:47:03.118Z,8.60
2018-11-06T01:49:31.423Z,8.60
2018-11-06T01:51:59.578Z,8.60
2018-11-06T01:54:28.352Z,8.60
2018-11-06T01:56:56.500Z,8.80
2018-11-06T01:59:26.026Z,8.90
2018-11-06T02:01:55.168Z,8.90
2018-11-06T02:04:24.211Z,8.80
2018-11-06T02:06:52.349Z,8.80
2018-11-06T02:09:20.985Z,8.70
2018-11-06T02:11:49.090Z,8.60
2018-11-06T02:14:17.428Z,8.50
2018-11-06T02:16:46.416Z,8.50
2018-11-06T02:19:14.727Z,8.40
2018-11-06T02:21:43.248Z,8.40
2018-11-06T02:24:11.513Z,8.30
2018-11-06T02:26:40.512Z,8.30
2018-11-06T02:29:08.912Z,8.30
2018-11-06T02:31:37.345Z,8.30
2018-11-06T02:34:06.685Z,8.40
2018-11-06T02:36:34.949Z,8.50
2018-11-06T02:39:04.248Z,8.60
2018-11-06T02:41:32.775Z,8.70
2018-11-06T02:44:01.600Z,8.70
2018-11-06T02:46:29.961Z,8.70
2018-11-06T02:48:58.057Z,8.70
2018-11-06T02:51:27.115Z,8.80
2018-11-06T02:53:55.231Z,8.80
2018-11-06T02:56:23.531Z,8.90
2018-11-06T02:58:51.613Z,8.90
2018-11-06T03:01:20.875Z,8.80
2018-11-06T03:03:48.985Z,8.80
2018-11-06T03:06:17.256Z,8.80
2018-11-06T03:08:45.385Z,8.80
2018-11-06T03:11:13.501Z,8.80
2018-11-06T03:13:43.019Z,8.70
2018-11-06T03:16:11.284Z,8.70
2018-11-06T03:18:39.420Z,8.60
2018-11-06T03:21:07.518Z,8.60
2018-11-06T03:23:35.716Z,8.60
2018-11-06T03:26:04.422Z,8.60
2018-11-06T03:28:33.124Z,8.50
2018-11-06T03:31:01.612Z,8.50
2018-11-06T03:33:29.761Z,8.50
2018-11-06T03:35:58.188Z,8.50
2018-11-06T03:38:26.420Z,8.50
2018-11-06T03:40:54.736Z,8.50
2018-11-06T03:43:22.870Z,8.50
2018-11-06T03:45:50.986Z,8.40
2018-11-06T03:48:19.150Z,8.40
2018-11-06T03:50:48.042Z,8.40
2018-11-06T03:53:16.407Z,8.40
2018-11-06T03:55:44.695Z,8.40
2018-11-06T03:58:12.810Z,8.30
2018-11-06T04:00:41.176Z,8.20
2018-11-06T04:03:09.624Z,8.20
2018-11-06T04:05:37.718Z,8.20
2018-11-06T04:08:06.292Z,8.10
2018-11-06T04:10:34.848Z,8.10
2018-11-06T04:13:03.054Z,8.10
2018-11-06T04:15:31.456Z,8.10
2018-11-06T04:17:59.592Z,8.10
2018-11-06T04:20:27.966Z,8.10
2018-11-06T04:22:56.373Z,8.10
2018-11-06T04:25:24.732Z,8.10
2018-11-06T04:27:53.058Z,8.10
2018-11-06T04:30:21.909Z,8.10
2018-11-06T04:32:50.919Z,8.10
2018-11-06T04:35:20.045Z,8.10
2018-11-06T04:37:48.638Z,8.10
2018-11-06T04:40:16.800Z,8.20
2018-11-06T04:42:45.147Z,8.20
2018-11-06T04:45:13.685Z,8.20
2018-11-06T04:47:42.447Z,8.10
2018-11-06T04:50:10.980Z,8.10
2018-11-06T04:52:39.473Z,8.20
2018-11-06T04:55:09.577Z,8.20
2018-11-06T04:57:38.096Z,8.30
2018-11-06T05:00:08.882Z,8.20
2018-11-06T05:02:37.411Z,8.20
2018-11-06T05:05:06.778Z,8.10
2018-11-06T05:07:35.466Z,8.10
2018-11-06T05:10:04.094Z,8.10
2018-11-06T05:12:33.848Z,8.10
2018-11-06T05:15:02.099Z,8.10
2018-11-06T05:17:30.254Z,8.10
2018-11-06T05:19:58.458Z,8.10
2018-11-06T05:22:26.900Z,8.10
2018-11-06T05:24:55.016Z,8.20
2018-11-06T05:27:23.133Z,8.20
2018-11-06T05:29:51.288Z,8.10
2018-11-06T05:32:19.626Z,8.20
2018-11-06T05:34:47.792Z,8.30
2018-11-06T05:37:15.970Z,8.50
2018-11-06T05:40:01.125Z,8.50
2018-11-06T05:42:29.705Z,8.60
2018-11-06T05:44:57.826Z,8.60
2018-11-06T05:47:26.338Z,8.50
2018-11-06T05:49:54.468Z,8.40
2018-11-06T05:52:22.744Z,8.30
2018-11-06T05:54:51.229Z,8.30
2018-11-06T05:57:19.350Z,8.20
2018-11-06T05:59:47.648Z,8.10
2018-11-06T06:02:15.862Z,8.00
2018-11-06T06:04:44.375Z,8.10
2018-11-06T06:07:13.156Z,8.10
2018-11-06T06:09:41.248Z,8.10
2018-11-06T06:12:09.433Z,8.20
2018-11-06T06:14:37.520Z,8.30
2018-11-06T06:17:06.653Z,8.40
2018-11-06T06:19:34.787Z,8.50
2018-11-06T06:22:02.930Z,8.60
2018-11-06T06:24:31.034Z,8.70
2018-11-06T06:26:59.374Z,8.70
2018-11-06T06:29:27.823Z,8.80
2018-11-06T06:31:56.611Z,8.90
2018-11-06T06:34:24.720Z,9.00
2018-11-06T06:36:52.859Z,9.10
2018-11-06T06:39:21.901Z,9.10
2018-11-06T06:41:50.324Z,9.20
2018-11-06T06:44:18.469Z,9.30
2018-11-06T06:46:47.313Z,9.40
2018-11-06T06:49:15.408Z,9.50
2018-11-06T06:51:44.254Z,9.50
2018-11-06T06:54:12.691Z,9.60
2018-11-06T06:56:40.677Z,9.70
2018-11-06T06:59:08.827Z,9.90
2018-11-06T07:01:37.020Z,10.00
2018-11-06T07:04:05.411Z,10.00
2018-11-06T07:06:33.529Z,10.00
2018-11-06T07:09:01.834Z,10.00
2018-11-06T07:11:29.962Z,9.90
2018-11-06T07:13:58.123Z,9.90
2018-11-06T07:16:27.843Z,9.80
2018-11-06T07:18:55.989Z,9.80
2018-11-06T07:21:24.216Z,9.90
2018-11-06T07:23:52.352Z,9.80
2018-11-06T07:26:20.597Z,9.90
2018-11-06T07:28:48.873Z,9.90
2018-11-06T07:31:16.969Z,9.90
2018-11-06T07:33:45.092Z,9.90
2018-11-06T07:36:13.397Z,10.00
2018-11-06T07:38:41.557Z,10.00
2018-11-06T07:41:10.621Z,10.10
2018-11-06T07:43:38.796Z,10.10
2018-11-06T07:46:07.578Z,10.20
2018-11-06T07:48:35.719Z,10.30
2018-11-06T07:51:03.903Z,10.30
2018-11-06T07:53:32.074Z,10.40
2018-11-06T07:56:00.352Z,10.50
2018-11-06T07:58:29.370Z,10.50
2018-11-06T08:00:58.240Z,10.60
2018-11-06T08:03:26.374Z,10.70
2018-11-06T08:05:54.540Z,10.80
2018-11-06T08:08:23.435Z,10.90
2018-11-06T08:10:51.504Z,11.00
2018-11-06T08:13:19.650Z,11.10
2018-11-06T08:15:48.448Z,11.20
2018-11-06T08:18:16.631Z,11.30
2018-11-06T08:20:46.053Z,11.40
2018-11-06T08:23:14.074Z,11.50
2018-11-06T08:25:43.039Z,11.60
2018-11-06T08:28:11.186Z,11.70
2018-11-06T08:30:39.450Z,11.80
2018-11-06T08:33:07.181Z,11.90
2018-11-06T08:35:35.310Z,12.00
2018-11-06T08:38:03.457Z,12.10
2018-11-06T08:40:31.959Z,12.30
2018-11-06T08:43:00.093Z,12.40
2018-11-06T08:45:28.191Z,12.70
2018-11-06T08:47:56.352Z,13.00
2018-11-06T08:50:24.689Z,13.80
2018-11-06T08:52:52.842Z,15.80
2018-11-06T08:55:21.070Z,17.70
2018-11-06T08:57:49.184Z,19.60
2018-11-06T09:00:18.527Z,21.80
2018-11-06T09:02:47.534Z,23.80
2018-11-06T09:05:16.629Z,25.50
2018-11-06T09:07:45.486Z,26.90
2018-11-06T09:10:14.594Z,26.80
2018-11-06T09:12:42.963Z,26.70
2018-11-06T09:15:13.393Z,26.60
2018-11-06T09:17:41.585Z,25.90
2018-11-06T09:20:11.431Z,25.40
2018-11-06T09:22:39.711Z,25.50
2018-11-06T09:25:10.131Z,26.30
2018-11-06T09:27:38.751Z,26.30
2018-11-06T09:30:12.390Z,26.90
2018-11-06T09:32:40.640Z,27.50
2018-11-06T09:35:10.720Z,27.20
2018-11-06T09:37:41.000Z,27.80
2018-11-06T09:40:12.593Z,27.70
2018-11-06T09:42:40.810Z,27.80
2018-11-06T09:45:10.347Z,28.10
2018-11-06T09:47:39.208Z,28.50
2018-11-06T09:50:12.951Z,26.90
2018-11-06T09:52:42.905Z,28.80
2018-11-06T09:55:11.223Z,30.30
2018-11-06T09:57:39.495Z,30.30
2018-11-06T10:00:12.306Z,28.60
2018-11-06T10:02:40.706Z,28.20
2018-11-06T10:05:09.645Z,28.00
2018-11-06T10:07:38.120Z,28.30
2018-11-06T10:10:09.298Z,28.50
2018-11-06T10:12:37.599Z,28.90
2018-11-06T10:15:08.599Z,29.30
2018-11-06T10:17:38.018Z,29.10
2018-11-06T10:20:07.932Z,29.20
2018-11-06T10:22:37.573Z,29.50
2018-11-06T10:25:06.439Z,30.50
2018-11-06T10:27:35.694Z,30.60
2018-11-06T10:30:04.667Z,30.70
2018-11-06T10:32:33.572Z,31.40
2018-11-06T10:35:01.694Z,31.40
2018-11-06T10:37:30.243Z,31.20
2018-11-06T10:39:59.196Z,30.80
2018-11-06T10:42:28.282Z,29.20
2018-11-06T10:44:56.414Z,27.50
2018-11-06T10:47:24.592Z,25.70
2018-11-06T10:49:52.706Z,25.20
2018-11-06T10:52:20.977Z,25.80
2018-11-06T10:54:50.055Z,26.70
2018-11-06T10:57:18.831Z,27.00
2018-11-06T10:59:46.973Z,28.60
2018-11-06T11:02:20.799Z,30.70
2018-11-06T11:04:49.631Z,31.90
2018-11-06T11:07:18.318Z,31.70
2018-11-06T11:09:46.481Z,32.70
2018-11-06T11:12:14.776Z,33.20
2018-11-06T11:14:42.935Z,33.40
2018-11-06T11:17:11.551Z,34.60
2018-11-06T11:19:39.692Z,35.20
2018-11-06T11:22:08.087Z,35.30
2018-11-06T11:24:36.399Z,35.60
2018-11-06T11:27:06.073Z,36.00
2018-11-06T11:29:34.401Z,35.00
2018-11-06T11:32:02.693Z,33.10
2018-11-06T11:34:30.975Z,32.20
2018-11-06T11:36:59.446Z,30.70
2018-11-06T11:39:27.913Z,31.10
2018-11-06T11:41:56.019Z,31.00
2018-11-06T11:44:24.593Z,31.00
2018-11-06T11:46:52.925Z,30.40
2018-11-06T11:49:21.170Z,30.20
2018-11-06T11:51:49.297Z,29.30
2018-11-06T11:54:17.625Z,27.30
2018-11-06T11:56:45.761Z,26.50
2018-11-06T11:59:14.610Z,25.10
2018-11-06T12:01:42.717Z,23.70
2018-11-06T12:04:11.022Z,22.70
2018-11-06T12:06:40.702Z,21.90
2018-11-06T12:09:09.641Z,21.10
2018-11-06T12:11:38.040Z,20.50
2018-11-06T12:14:06.680Z,20.10
2018-11-06T12:16:35.701Z,20.10
2018-11-06T12:19:04.042Z,20.10
2018-11-06T12:21:32.200Z,20.00
2018-11-06T12:24:01.074Z,19.80
2018-11-06T12:26:29.217Z,19.70
2018-11-06T12:28:57.532Z,19.40
2018-11-06T12:31:25.676Z,19.30
2018-11-06T12:33:53.972Z,19.00
2018-11-06T12:36:22.196Z,18.80
2018-11-06T12:41:19.068Z,18.70
2018-11-06T12:43:47.412Z,18.70
2018-11-06T12:46:16.082Z,18.80
2018-11-06T12:48:45.117Z,18.70
2018-11-06T12:51:13.250Z,18.80
2018-11-06T12:53:41.538Z,18.70
2018-11-06T12:56:09.681Z,18.80
2018-11-06T12:58:37.968Z,18.80
2018-11-06T13:01:06.554Z,18.70
2018-11-06T13:03:34.960Z,18.50
2018-11-06T13:06:03.164Z,18.50
2018-11-06T13:08:31.288Z,18.50
2018-11-06T13:10:59.499Z,18.50
2018-11-06T13:13:27.880Z,18.50
2018-11-06T13:15:57.220Z,18.50
2018-11-06T13:18:25.558Z,18.60
2018-11-06T13:20:53.779Z,18.60
2018-11-06T13:23:22.050Z,18.60
2018-11-06T13:25:50.525Z,18.50
2018-11-06T13:28:19.346Z,18.50
2018-11-06T13:30:47.729Z,18.50
2018-11-06T13:33:16.773Z,18.50
2018-11-06T13:35:45.069Z,18.60
2018-11-06T13:38:13.308Z,18.60
2018-11-06T13:40:41.699Z,18.50
2018-11-06T13:43:09.890Z,18.50
2018-11-06T13:45:39.228Z,18.50
2018-11-06T13:48:07.921Z,18.40
2018-11-06T13:50:36.889Z,18.40
2018-11-06T13:53:05.548Z,18.40
2018-11-06T13:55:34.003Z,18.40
2018-11-06T13:58:02.141Z,18.30
2018-11-06T14:00:31.057Z,18.30
2018-11-06T14:02:59.820Z,18.20
2018-11-06T14:05:28.180Z,18.20
2018-11-06T14:07:56.405Z,18.20
2018-11-06T14:10:24.557Z,18.10
2018-11-06T14:12:52.695Z,18.10
2018-11-06T14:15:22.476Z,18.10
2018-11-06T14:17:50.630Z,18.10
2018-11-06T14:20:18.970Z,18.10
2018-11-06T14:22:47.102Z,18.10
2018-11-06T14:25:16.463Z,18.50
2018-11-06T14:27:44.558Z,19.50
2018-11-06T14:30:15.660Z,20.70
2018-11-06T14:32:44.072Z,21.70
2018-11-06T14:35:14.007Z,22.60
2018-11-06T14:37:42.711Z,23.10
2018-11-06T14:40:12.183Z,23.20
2018-11-06T14:42:40.804Z,23.40
2018-11-06T14:45:11.609Z,23.10
2018-11-06T14:47:40.128Z,22.60
2018-11-06T14:50:09.325Z,22.50
2018-11-06T14:52:37.760Z,22.30
2018-11-06T14:55:08.748Z,21.80
2018-11-06T14:57:37.055Z,21.20
2018-11-06T15:00:11.710Z,20.30
2018-11-06T15:02:42.702Z,19.70
2018-11-06T15:05:10.882Z,19.10
2018-11-06T15:07:39.113Z,18.60
2018-11-06T15:10:08.565Z,18.30
2018-11-06T15:12:37.387Z,18.00
2018-11-06T15:15:08.771Z,17.70
2018-11-06T15:17:38.220Z,17.50
2018-11-06T15:20:09.571Z,17.30
2018-11-06T15:22:38.119Z,17.10
2018-11-06T15:25:07.390Z,17.00
2018-11-06T15:27:35.606Z,16.80
2018-11-06T15:30:04.565Z,16.70
2018-11-06T15:32:32.721Z,16.50
2018-11-06T15:35:01.057Z,16.40
2018-11-06T15:37:29.369Z,16.30
2018-11-06T15:39:58.072Z,16.20
2018-11-06T15:42:26.455Z,16.10
2018-11-06T15:44:54.999Z,16.00
2018-11-06T15:47:23.337Z,15.90
2018-11-06T15:49:51.567Z,15.90
2018-11-06T15:52:19.919Z,15.80
2018-11-06T15:54:48.998Z,15.70
2018-11-06T15:57:18.038Z,15.60
2018-11-06T15:59:46.272Z,15.50
2018-11-06T16:02:14.592Z,15.50
2018-11-06T16:04:46.296Z,15.40
2018-11-06T16:07:17.236Z,15.30
2018-11-06T16:09:46.700Z,15.30
2018-11-06T16:12:15.201Z,15.20
2018-11-06T16:14:43.809Z,15.20
2018-11-06T16:17:11.973Z,15.10
2018-11-06T16:19:40.360Z,15.00
2018-11-06T16:22:08.574Z,15.00
2018-11-06T16:24:38.626Z,14.90
2018-11-06T16:27:06.990Z,14.80
2018-11-06T16:29:35.180Z,14.70
2018-11-06T16:32:03.314Z,14.60
2018-11-06T16:34:31.450Z,14.50
2018-11-06T16:36:59.727Z,14.40
2018-11-06T16:39:29.595Z,14.40
2018-11-06T16:41:57.914Z,14.40
2018-11-06T16:44:26.358Z,14.40
2018-11-06T16:46:54.950Z,14.30
2018-11-06T16:49:23.164Z,14.30
2018-11-06T16:51:51.347Z,14.20
2018-11-06T16:54:19.846Z,14.20
2018-11-06T16:56:48.067Z,14.10
2018-11-06T16:59:16.178Z,14.10
2018-11-06T17:01:44.404Z,14.00
2018-11-06T17:04:13.176Z,13.90
2018-11-06T17:06:46.852Z,13.90
2018-11-06T17:09:16.568Z,13.80
2018-11-06T17:11:45.410Z,13.70
2018-11-06T17:14:13.837Z,13.70
2018-11-06T17:16:42.728Z,13.70
2018-11-06T17:19:12.294Z,13.70
2018-11-06T17:21:40.514Z,13.70
2018-11-06T17:24:08.656Z,13.60
2018-11-06T17:26:36.773Z,13.60
2018-11-06T17:29:05.726Z,13.50
2018-11-06T17:31:34.145Z,13.40
2018-11-06T17:34:02.659Z,13.30
2018-11-06T17:36:31.095Z,13.30
2018-11-06T17:38:59.506Z,13.30
2018-11-06T17:41:27.584Z,13.20
2018-11-06T17:43:56.452Z,13.20
2018-11-06T17:46:24.615Z,13.10
2018-11-06T17:48:53.472Z,13.10
2018-11-06T17:51:21.833Z,13.10
2018-11-06T17:53:50.037Z,13.00
2018-11-06T17:56:18.276Z,12.90
2018-11-06T17:58:46.452Z,12.90
2018-11-06T18:01:14.683Z,12.80
2018-11-06T18:03:43.193Z,12.90
2018-11-06T18:06:11.286Z,12.80
2018-11-06T18:08:39.815Z,12.70
2018-11-06T18:11:08.638Z,12.70
2018-11-06T18:13:37.764Z,12.70
2018-11-06T18:16:06.306Z,12.70
2018-11-06T18:18:35.156Z,12.60
2018-11-06T18:21:03.377Z,12.60
2018-11-06T18:23:31.645Z,12.50
2018-11-06T18:25:59.850Z,12.50
2018-11-06T18:28:28.062Z,12.40
2018-11-06T18:30:56.307Z,12.40
2018-11-06T18:33:25.511Z,12.30
2018-11-06T18:35:53.840Z,12.30
2018-11-06T18:38:22.841Z,12.30
2018-11-06T18:40:50.975Z,12.20
2018-11-06T18:43:19.116Z,12.10
2018-11-06T18:45:47.390Z,12.10
2018-11-06T18:48:15.783Z,12.00
2018-11-06T18:51:11.619Z,12.00
2018-11-06T18:53:40.566Z,12.00
2018-11-06T18:56:08.643Z,11.90
2018-11-06T18:58:37.834Z,11.90
2018-11-06T19:01:06.024Z,11.90
2018-11-06T19:03:35.248Z,11.90
2018-11-06T19:06:03.473Z,11.80
2018-11-06T19:08:32.516Z,11.70
2018-11-06T19:11:01.363Z,11.70
2018-11-06T19:13:29.700Z,11.70
2018-11-06T19:15:58.343Z,11.70
2018-11-06T19:18:26.522Z,11.70
2018-11-06T19:20:54.621Z,11.60
2018-11-06T19:23:23.725Z,11.50
2018-11-06T19:25:51.814Z,11.50
2018-11-06T19:28:19.904Z,11.50
2018-11-06T19:30:48.055Z,11.40
2018-11-06T19:33:16.188Z,11.40
2018-11-06T19:35:44.390Z,11.40
2018-11-06T19:38:12.519Z,11.40
2018-11-06T19:40:40.774Z,11.40
2018-11-06T19:43:08.846Z,11.30
2018-11-06T19:45:36.984Z,11.30
2018-11-06T19:48:05.498Z,11.30
2018-11-06T19:50:33.634Z,11.30
2018-11-06T19:53:01.846Z,11.30
2018-11-06T19:55:30.053Z,11.30
2018-11-06T19:57:58.187Z,11.20
2018-11-06T20:00:26.349Z,11.20
2018-11-06T20:02:54.578Z,11.20
2018-11-06T20:05:22.793Z,11.10
2018-11-06T20:07:51.527Z,11.10
2018-11-06T20:10:22.257Z,11.10
2018-11-06T20:12:51.425Z,11.00
2018-11-06T20:15:19.718Z,11.00
2018-11-06T20:17:48.821Z,11.00
2018-11-06T20:20:20.439Z,10.90
2018-11-06T20:22:48.635Z,10.90
2018-11-06T20:25:16.782Z,10.80
2018-11-06T20:27:45.327Z,10.80
2018-11-06T20:30:16.341Z,10.70
2018-11-06T20:32:44.555Z,10.70
2018-11-06T20:35:13.193Z,10.70
2018-11-06T20:37:41.418Z,10.60
2018-11-06T20:40:13.191Z,10.60
2018-11-06T20:42:42.036Z,10.60
2018-11-06T20:45:12.102Z,10.60
2018-11-06T20:47:40.463Z,10.60
2018-11-06T20:50:11.699Z,10.60
2018-11-06T20:52:39.997Z,10.60
2018-11-06T20:55:08.848Z,10.60
2018-11-06T20:57:36.950Z,10.60
2018-11-06T21:00:08.241Z,10.60
2018-11-06T21:02:36.336Z,10.60
2018-11-06T21:05:04.947Z,10.60
2018-11-06T21:07:33.320Z,10.60
2018-11-06T21:10:01.466Z,10.60
2018-11-06T21:12:29.736Z,10.50
2018-11-06T21:14:57.884Z,10.50
2018-11-06T21:17:26.981Z,10.50
2018-11-06T21:19:55.211Z,10.50
2018-11-06T21:22:23.287Z,10.40
2018-11-06T21:24:51.543Z,10.40
2018-11-06T21:27:19.757Z,10.40
2018-11-06T21:29:47.945Z,10.40
2018-11-06T21:32:16.188Z,10.40
2018-11-06T21:34:44.371Z,10.30
2018-11-06T21:37:12.618Z,10.40
2018-11-06T21:39:40.759Z,10.40
2018-11-06T21:42:09.175Z,10.40
2018-11-06T21:44:37.645Z,10.30
2018-11-06T21:47:05.783Z,10.30
2018-11-06T21:49:33.959Z,10.30
2018-11-06T21:52:02.234Z,10.20
2018-11-06T21:54:30.455Z,10.20
2018-11-06T21:56:59.649Z,10.10
2018-11-06T21:59:28.090Z,10.00
2018-11-06T22:01:57.007Z,10.10
2018-11-06T22:04:25.417Z,10.10
2018-11-06T22:06:53.581Z,10.10
2018-11-06T22:09:21.943Z,10.00
2018-11-06T22:11:50.061Z,10.00
2018-11-06T22:14:18.344Z,10.00
2018-11-06T22:16:46.739Z,10.00
2018-11-06T22:19:15.260Z,10.00
2018-11-06T22:21:43.751Z,9.90
2018-11-06T22:24:11.972Z,9.80
2018-11-06T22:26:40.160Z,9.80
2018-11-06T22:29:08.612Z,9.80
2018-11-06T22:31:37.278Z,9.80
2018-11-06T22:34:05.748Z,9.70
2018-11-06T22:36:34.046Z,9.70
2018-11-06T22:39:02.370Z,9.70
2018-11-06T22:41:30.803Z,9.70
2018-11-06T22:43:59.076Z,9.70
2018-11-06T22:46:27.386Z,9.60
2018-11-06T22:48:55.571Z,9.60
2018-11-06T22:51:24.058Z,9.60
2018-11-06T22:53:52.480Z,9.60
2018-11-06T22:56:20.871Z,9.60
2018-11-06T22:58:49.006Z,9.60
2018-11-06T23:01:22.822Z,9.60
2018-11-06T23:03:52.765Z,9.60
2018-11-06T23:06:21.542Z,9.60
2018-11-06T23:08:49.692Z,9.50
2018-11-06T23:11:18.522Z,9.50
2018-11-06T23:13:46.908Z,9.40
2018-11-06T23:16:15.173Z,9.40
2018-11-06T23:18:43.306Z,9.40
2018-11-06T23:21:11.448Z,9.40
2018-11-06T23:23:39.598Z,9.40
2018-11-06T23:26:08.080Z,9.30
2018-11-06T23:28:36.326Z,9.30
2018-11-06T23:31:04.821Z,9.30
2018-11-06T23:33:32.990Z,9.30
2018-11-06T23:36:01.398Z,9.30
2018-11-06T23:38:29.763Z,9.30
2018-11-06T23:40:58.449Z,9.30
2018-11-06T23:43:26.752Z,9.30
2018-11-06T23:45:55.063Z,9.40
2018-11-06T23:48:23.487Z,9.30
2018-11-06T23:50:51.923Z,9.30
2018-11-06T23:53:20.419Z,9.30
2018-11-06T23:55:48.553Z,9.30
2018-11-06T23:58:16.851Z,9.30
